sensor_id;sensor_type;location;lat;lon;timestamp;temperature;humidity
8707;DHT22;4390;49.302;9.306;2023-04-15T00:01:43;5.70;96.90
8707;DHT22;4390;49.302;9.306;2023-04-15T00:04:10;5.80;96.80
8707;DHT22;4390;49.302;9.306;2023-04-15T00:06:38;5.90;96.80
8707;DHT22;4390;49.302;9.306;2023-04-15T00:09:05;5.80;96.60
8707;DHT22;4390;49.302;9.306;2023-04-15T00:11:33;5.80;96.80
8707;DHT22;4390;49.302;9.306;2023-04-15T00:14:00;5.80;96.80
8707;DHT22;4390;49.302;9.306;2023-04-15T00:16:27;5.90;96.90
8707;DHT22;4390;49.302;9.306;2023-04-15T00:18:53;5.80;97.20
8707;DHT22;4390;49.302;9.306;2023-04-15T00:21:20;5.70;97.10
8707;DHT22;4390;49.302;9.306;2023-04-15T00:23:47;5.50;97.60
8707;DHT22;4390;49.302;9.306;2023-04-15T00:26:18;5.60;97.80
8707;DHT22;4390;49.302;9.306;2023-04-15T00:28:46;5.50;97.80
8707;DHT22;4390;49.302;9.306;2023-04-15T00:31:13;5.60;97.50
8707;DHT22;4390;49.302;9.306;2023-04-15T00:33:40;5.50;97.50
8707;DHT22;4390;49.302;9.306;2023-04-15T00:36:07;5.60;97.20
8707;DHT22;4390;49.302;9.306;2023-04-15T00:38:35;5.50;97.30
8707;DHT22;4390;49.302;9.306;2023-04-15T00:41:02;5.30;97.70
8707;DHT22;4390;49.302;9.306;2023-04-15T00:43:29;5.10;98.00
8707;DHT22;4390;49.302;9.306;2023-04-15T00:45:57;5.20;98.30
8707;DHT22;4390;49.302;9.306;2023-04-15T00:48:25;5.20;98.10
8707;DHT22;4390;49.302;9.306;2023-04-15T00:50:53;5.30;98.30
8707;DHT22;4390;49.302;9.306;2023-04-15T00:53:20;5.40;97.80
8707;DHT22;4390;49.302;9.306;2023-04-15T00:55:46;5.70;97.30
8707;DHT22;4390;49.302;9.306;2023-04-15T00:58:13;5.70;96.60
8707;DHT22;4390;49.302;9.306;2023-04-15T01:00:41;5.60;96.80
8707;DHT22;4390;49.302;9.306;2023-04-15T01:03:09;5.50;96.70
8707;DHT22;4390;49.302;9.306;2023-04-15T01:05:36;5.40;97.00
8707;DHT22;4390;49.302;9.306;2023-04-15T01:08:04;5.40;97.10
8707;DHT22;4390;49.302;9.306;2023-04-15T01:10:31;5.30;97.40
8707;DHT22;4390;49.302;9.306;2023-04-15T01:12:58;5.40;96.60
8707;DHT22;4390;49.302;9.306;2023-04-15T01:15:25;5.40;96.40
8707;DHT22;4390;49.302;9.306;2023-04-15T01:17:53;5.30;96.70
8707;DHT22;4390;49.302;9.306;2023-04-15T01:20:20;5.20;97.20
8707;DHT22;4390;49.302;9.306;2023-04-15T01:22:48;5.20;97.10
8707;DHT22;4390;49.302;9.306;2023-04-15T01:25:18;5.10;97.30
8707;DHT22;4390;49.302;9.306;2023-04-15T01:27:45;5.00;97.50
8707;DHT22;4390;49.302;9.306;2023-04-15T01:30:13;5.20;97.30
8707;DHT22;4390;49.302;9.306;2023-04-15T01:32:40;5.10;97.20
8707;DHT22;4390;49.302;9.306;2023-04-15T01:35:07;4.90;97.40
8707;DHT22;4390;49.302;9.306;2023-04-15T01:37:34;5.00;97.40
8707;DHT22;4390;49.302;9.306;2023-04-15T01:40:02;4.90;97.50
8707;DHT22;4390;49.302;9.306;2023-04-15T01:42:29;5.00;97.40
8707;DHT22;4390;49.302;9.306;2023-04-15T01:44:55;5.10;97.10
8707;DHT22;4390;49.302;9.306;2023-04-15T01:47:22;5.10;97.00
8707;DHT22;4390;49.302;9.306;2023-04-15T01:49:49;5.20;96.80
8707;DHT22;4390;49.302;9.306;2023-04-15T01:52:15;5.20;96.20
8707;DHT22;4390;49.302;9.306;2023-04-15T01:54:42;5.20;96.40
8707;DHT22;4390;49.302;9.306;2023-04-15T01:57:10;5.10;96.30
8707;DHT22;4390;49.302;9.306;2023-04-15T01:59:37;5.00;96.50
8707;DHT22;4390;49.302;9.306;2023-04-15T02:02:04;5.10;96.40
8707;DHT22;4390;49.302;9.306;2023-04-15T02:04:31;5.10;96.50
8707;DHT22;4390;49.302;9.306;2023-04-15T02:06:59;5.10;96.10
8707;DHT22;4390;49.302;9.306;2023-04-15T02:09:26;5.00;96.40
8707;DHT22;4390;49.302;9.306;2023-04-15T02:11:52;5.10;96.20
8707;DHT22;4390;49.302;9.306;2023-04-15T02:14:19;5.00;96.30
8707;DHT22;4390;49.302;9.306;2023-04-15T02:16:46;4.90;96.20
8707;DHT22;4390;49.302;9.306;2023-04-15T02:19:14;4.90;96.40
8707;DHT22;4390;49.302;9.306;2023-04-15T02:21:41;5.00;96.30
8707;DHT22;4390;49.302;9.306;2023-04-15T02:24:08;4.90;96.50
8707;DHT22;4390;49.302;9.306;2023-04-15T02:26:35;5.00;96.40
8707;DHT22;4390;49.302;9.306;2023-04-15T02:29:02;5.00;96.20
8707;DHT22;4390;49.302;9.306;2023-04-15T02:31:28;4.90;96.10
8707;DHT22;4390;49.302;9.306;2023-04-15T02:33:57;4.70;96.40
8707;DHT22;4390;49.302;9.306;2023-04-15T02:36:24;4.60;97.10
8707;DHT22;4390;49.302;9.306;2023-04-15T02:38:52;4.60;97.20
8707;DHT22;4390;49.302;9.306;2023-04-15T02:41:19;4.50;97.20
8707;DHT22;4390;49.302;9.306;2023-04-15T02:43:46;4.60;97.00
8707;DHT22;4390;49.302;9.306;2023-04-15T02:46:13;4.40;96.70
8707;DHT22;4390;49.302;9.306;2023-04-15T02:48:40;4.40;96.80
8707;DHT22;4390;49.302;9.306;2023-04-15T02:51:16;4.40;97.00
8707;DHT22;4390;49.302;9.306;2023-04-15T02:53:44;4.40;97.20
8707;DHT22;4390;49.302;9.306;2023-04-15T02:56:10;4.30;97.30
8707;DHT22;4390;49.302;9.306;2023-04-15T02:58:39;4.40;97.40
8707;DHT22;4390;49.302;9.306;2023-04-15T03:01:06;4.30;97.40
8707;DHT22;4390;49.302;9.306;2023-04-15T03:03:34;4.30;97.30
8707;DHT22;4390;49.302;9.306;2023-04-15T03:06:01;4.30;97.40
8707;DHT22;4390;49.302;9.306;2023-04-15T03:08:28;4.40;97.30
8707;DHT22;4390;49.302;9.306;2023-04-15T03:10:57;4.40;97.20
8707;DHT22;4390;49.302;9.306;2023-04-15T03:13:26;4.40;97.30
8707;DHT22;4390;49.302;9.306;2023-04-15T03:15:55;4.30;97.70
8707;DHT22;4390;49.302;9.306;2023-04-15T03:18:22;4.30;97.70
8707;DHT22;4390;49.302;9.306;2023-04-15T03:20:49;4.30;97.70
8707;DHT22;4390;49.302;9.306;2023-04-15T03:23:16;4.30;97.90
8707;DHT22;4390;49.302;9.306;2023-04-15T03:25:44;4.20;98.20
8707;DHT22;4390;49.302;9.306;2023-04-15T03:28:11;4.30;98.30
8707;DHT22;4390;49.302;9.306;2023-04-15T03:30:37;4.40;98.10
8707;DHT22;4390;49.302;9.306;2023-04-15T03:33:04;4.70;97.30
8707;DHT22;4390;49.302;9.306;2023-04-15T03:35:31;4.70;96.40
8707;DHT22;4390;49.302;9.306;2023-04-15T03:37:58;4.70;96.40
8707;DHT22;4390;49.302;9.306;2023-04-15T03:40:25;4.70;96.40
8707;DHT22;4390;49.302;9.306;2023-04-15T03:42:51;4.70;96.10
8707;DHT22;4390;49.302;9.306;2023-04-15T03:45:18;4.70;96.60
8707;DHT22;4390;49.302;9.306;2023-04-15T03:47:45;4.50;97.20
8707;DHT22;4390;49.302;9.306;2023-04-15T03:50:12;4.40;97.70
8707;DHT22;4390;49.302;9.306;2023-04-15T03:52:38;4.40;97.60
8707;DHT22;4390;49.302;9.306;2023-04-15T03:55:05;4.30;97.70
8707;DHT22;4390;49.302;9.306;2023-04-15T03:57:32;4.20;97.90
8707;DHT22;4390;49.302;9.306;2023-04-15T04:00:07;4.20;98.20
8707;DHT22;4390;49.302;9.306;2023-04-15T04:02:39;4.20;98.20
8707;DHT22;4390;49.302;9.306;2023-04-15T04:05:07;4.30;98.00
8707;DHT22;4390;49.302;9.306;2023-04-15T04:07:34;4.40;97.80
8707;DHT22;4390;49.302;9.306;2023-04-15T04:10:01;4.50;97.40
8707;DHT22;4390;49.302;9.306;2023-04-15T04:12:29;4.60;96.80
8707;DHT22;4390;49.302;9.306;2023-04-15T04:14:56;4.50;96.90
8707;DHT22;4390;49.302;9.306;2023-04-15T04:17:22;4.40;97.00
8707;DHT22;4390;49.302;9.306;2023-04-15T04:19:49;4.30;97.20
8707;DHT22;4390;49.302;9.306;2023-04-15T04:22:16;4.40;97.20
8707;DHT22;4390;49.302;9.306;2023-04-15T04:24:42;4.20;97.20
8707;DHT22;4390;49.302;9.306;2023-04-15T04:27:09;4.10;97.40
8707;DHT22;4390;49.302;9.306;2023-04-15T04:29:36;4.00;97.70
8707;DHT22;4390;49.302;9.306;2023-04-15T04:32:03;4.00;97.80
8707;DHT22;4390;49.302;9.306;2023-04-15T04:34:29;4.10;97.40
8707;DHT22;4390;49.302;9.306;2023-04-15T04:36:56;4.10;97.30
8707;DHT22;4390;49.302;9.306;2023-04-15T04:39:23;4.00;97.50
8707;DHT22;4390;49.302;9.306;2023-04-15T04:41:50;3.90;97.70
8707;DHT22;4390;49.302;9.306;2023-04-15T04:44:17;4.10;97.40
8707;DHT22;4390;49.302;9.306;2023-04-15T04:46:44;4.10;97.20
8707;DHT22;4390;49.302;9.306;2023-04-15T04:49:11;4.10;97.00
8707;DHT22;4390;49.302;9.306;2023-04-15T04:51:37;4.20;96.70
8707;DHT22;4390;49.302;9.306;2023-04-15T04:54:04;4.10;97.00
8707;DHT22;4390;49.302;9.306;2023-04-15T04:56:31;4.20;97.10
8707;DHT22;4390;49.302;9.306;2023-04-15T04:58:59;4.00;96.90
8707;DHT22;4390;49.302;9.306;2023-04-15T05:01:27;4.00;97.20
8707;DHT22;4390;49.302;9.306;2023-04-15T05:03:54;4.00;97.10
8707;DHT22;4390;49.302;9.306;2023-04-15T05:06:20;3.90;97.20
8707;DHT22;4390;49.302;9.306;2023-04-15T05:08:47;4.10;97.30
8707;DHT22;4390;49.302;9.306;2023-04-15T05:11:14;4.00;97.20
8707;DHT22;4390;49.302;9.306;2023-04-15T05:13:41;4.10;96.90
8707;DHT22;4390;49.302;9.306;2023-04-15T05:16:07;4.00;97.10
8707;DHT22;4390;49.302;9.306;2023-04-15T05:18:34;3.90;97.10
8707;DHT22;4390;49.302;9.306;2023-04-15T05:21:02;3.80;97.50
8707;DHT22;4390;49.302;9.306;2023-04-15T05:23:28;3.90;97.80
8707;DHT22;4390;49.302;9.306;2023-04-15T05:25:55;3.90;97.70
8707;DHT22;4390;49.302;9.306;2023-04-15T05:28:22;3.90;97.70
8707;DHT22;4390;49.302;9.306;2023-04-15T05:30:49;3.70;98.20
8707;DHT22;4390;49.302;9.306;2023-04-15T05:33:16;3.70;98.30
8707;DHT22;4390;49.302;9.306;2023-04-15T05:35:42;3.60;98.30
8707;DHT22;4390;49.302;9.306;2023-04-15T05:38:09;3.60;98.30
8707;DHT22;4390;49.302;9.306;2023-04-15T05:40:36;3.60;98.30
8707;DHT22;4390;49.302;9.306;2023-04-15T05:43:03;3.70;98.30
8707;DHT22;4390;49.302;9.306;2023-04-15T05:45:29;3.90;98.30
8707;DHT22;4390;49.302;9.306;2023-04-15T05:47:56;4.00;98.30
8707;DHT22;4390;49.302;9.306;2023-04-15T05:50:24;4.00;98.30
8707;DHT22;4390;49.302;9.306;2023-04-15T05:52:51;4.10;98.30
8707;DHT22;4390;49.302;9.306;2023-04-15T05:55:18;4.10;98.30
8707;DHT22;4390;49.302;9.306;2023-04-15T05:57:45;4.20;98.10
8707;DHT22;4390;49.302;9.306;2023-04-15T06:00:12;4.20;98.20
8707;DHT22;4390;49.302;9.306;2023-04-15T06:02:39;4.20;98.20
8707;DHT22;4390;49.302;9.306;2023-04-15T06:05:06;4.30;98.10
8707;DHT22;4390;49.302;9.306;2023-04-15T06:07:36;4.30;98.30
8707;DHT22;4390;49.302;9.306;2023-04-15T06:10:04;4.40;98.20
8707;DHT22;4390;49.302;9.306;2023-04-15T06:12:31;4.60;97.80
8707;DHT22;4390;49.302;9.306;2023-04-15T06:14:58;4.80;97.60
8707;DHT22;4390;49.302;9.306;2023-04-15T06:17:26;5.00;97.50
8707;DHT22;4390;49.302;9.306;2023-04-15T06:19:52;5.10;96.90
8707;DHT22;4390;49.302;9.306;2023-04-15T06:22:22;5.10;96.60
8707;DHT22;4390;49.302;9.306;2023-04-15T06:24:49;5.10;97.00
8707;DHT22;4390;49.302;9.306;2023-04-15T06:27:17;5.10;97.40
8707;DHT22;4390;49.302;9.306;2023-04-15T06:29:44;5.00;97.50
8707;DHT22;4390;49.302;9.306;2023-04-15T06:32:11;4.90;97.90
8707;DHT22;4390;49.302;9.306;2023-04-15T06:34:38;5.00;97.70
8707;DHT22;4390;49.302;9.306;2023-04-15T06:37:05;4.90;97.70
8707;DHT22;4390;49.302;9.306;2023-04-15T06:39:32;4.90;98.00
8707;DHT22;4390;49.302;9.306;2023-04-15T06:41:59;5.00;97.90
8707;DHT22;4390;49.302;9.306;2023-04-15T06:44:26;5.10;98.00
8707;DHT22;4390;49.302;9.306;2023-04-15T06:46:53;5.20;97.70
8707;DHT22;4390;49.302;9.306;2023-04-15T06:49:20;5.40;97.30
8707;DHT22;4390;49.302;9.306;2023-04-15T06:51:47;5.40;97.30
8707;DHT22;4390;49.302;9.306;2023-04-15T06:54:13;5.60;97.20
8707;DHT22;4390;49.302;9.306;2023-04-15T06:56:40;5.70;96.90
8707;DHT22;4390;49.302;9.306;2023-04-15T06:59:07;5.70;97.10
8707;DHT22;4390;49.302;9.306;2023-04-15T07:01:34;5.80;97.00
8707;DHT22;4390;49.302;9.306;2023-04-15T07:04:01;5.70;97.30
8707;DHT22;4390;49.302;9.306;2023-04-15T07:06:28;5.70;97.60
8707;DHT22;4390;49.302;9.306;2023-04-15T07:08:55;5.80;97.80
8707;DHT22;4390;49.302;9.306;2023-04-15T07:11:21;5.90;97.90
8707;DHT22;4390;49.302;9.306;2023-04-15T07:13:48;6.00;97.80
8707;DHT22;4390;49.302;9.306;2023-04-15T07:16:15;5.90;98.20
8707;DHT22;4390;49.302;9.306;2023-04-15T07:18:41;6.10;98.10
8707;DHT22;4390;49.302;9.306;2023-04-15T07:21:08;6.20;97.80
8707;DHT22;4390;49.302;9.306;2023-04-15T07:23:35;6.20;97.70
8707;DHT22;4390;49.302;9.306;2023-04-15T07:26:02;6.50;97.90
8707;DHT22;4390;49.302;9.306;2023-04-15T07:28:29;6.70;97.30
8707;DHT22;4390;49.302;9.306;2023-04-15T07:30:56;6.90;97.10
8707;DHT22;4390;49.302;9.306;2023-04-15T07:33:23;7.00;96.60
8707;DHT22;4390;49.302;9.306;2023-04-15T07:35:49;7.10;96.70
8707;DHT22;4390;49.302;9.306;2023-04-15T07:38:16;7.40;96.00
8707;DHT22;4390;49.302;9.306;2023-04-15T07:40:43;7.60;95.40
8707;DHT22;4390;49.302;9.306;2023-04-15T07:43:10;7.60;95.30
8707;DHT22;4390;49.302;9.306;2023-04-15T07:45:36;7.70;95.00
8707;DHT22;4390;49.302;9.306;2023-04-15T07:48:03;7.70;95.10
8707;DHT22;4390;49.302;9.306;2023-04-15T07:50:31;7.90;94.90
8707;DHT22;4390;49.302;9.306;2023-04-15T07:52:58;7.90;94.50
8707;DHT22;4390;49.302;9.306;2023-04-15T07:55:24;8.00;94.30
8707;DHT22;4390;49.302;9.306;2023-04-15T07:57:53;8.20;94.00
8707;DHT22;4390;49.302;9.306;2023-04-15T08:00:20;8.30;93.70
8707;DHT22;4390;49.302;9.306;2023-04-15T08:02:48;8.30;93.60
8707;DHT22;4390;49.302;9.306;2023-04-15T08:05:15;8.30;93.20
8707;DHT22;4390;49.302;9.306;2023-04-15T08:07:42;8.40;93.20
8707;DHT22;4390;49.302;9.306;2023-04-15T08:10:09;8.50;92.90
8707;DHT22;4390;49.302;9.306;2023-04-15T08:12:37;8.50;92.70
8707;DHT22;4390;49.302;9.306;2023-04-15T08:15:04;8.30;92.90
8707;DHT22;4390;49.302;9.306;2023-04-15T08:17:32;8.40;93.30
8707;DHT22;4390;49.302;9.306;2023-04-15T08:19:59;8.50;92.90
8707;DHT22;4390;49.302;9.306;2023-04-15T08:22:25;8.70;92.80
8707;DHT22;4390;49.302;9.306;2023-04-15T08:24:53;8.90;92.70
8707;DHT22;4390;49.302;9.306;2023-04-15T08:27:19;8.90;92.50
8707;DHT22;4390;49.302;9.306;2023-04-15T08:29:47;8.90;92.40
8707;DHT22;4390;49.302;9.306;2023-04-15T08:32:13;9.00;91.90
8707;DHT22;4390;49.302;9.306;2023-04-15T08:34:40;9.10;92.30
8707;DHT22;4390;49.302;9.306;2023-04-15T08:37:07;9.30;91.90
8707;DHT22;4390;49.302;9.306;2023-04-15T08:39:35;9.60;91.60
8707;DHT22;4390;49.302;9.306;2023-04-15T08:42:03;9.80;90.80
8707;DHT22;4390;49.302;9.306;2023-04-15T08:44:34;9.80;90.40
8707;DHT22;4390;49.302;9.306;2023-04-15T08:47:03;9.80;90.40
8707;DHT22;4390;49.302;9.306;2023-04-15T08:49:35;9.80;90.50
8707;DHT22;4390;49.302;9.306;2023-04-15T08:52:05;9.80;90.80
8707;DHT22;4390;49.302;9.306;2023-04-15T08:54:33;10.10;90.60
8707;DHT22;4390;49.302;9.306;2023-04-15T08:57:00;10.20;90.20
8707;DHT22;4390;49.302;9.306;2023-04-15T08:59:29;10.50;89.80
8707;DHT22;4390;49.302;9.306;2023-04-15T09:01:56;10.30;89.90
8707;DHT22;4390;49.302;9.306;2023-04-15T09:04:24;10.50;89.70
8707;DHT22;4390;49.302;9.306;2023-04-15T09:06:50;10.70;89.70
8707;DHT22;4390;49.302;9.306;2023-04-15T09:09:17;10.80;89.60
8707;DHT22;4390;49.302;9.306;2023-04-15T09:11:44;11.00;89.80
8707;DHT22;4390;49.302;9.306;2023-04-15T09:14:11;11.10;89.70
8707;DHT22;4390;49.302;9.306;2023-04-15T09:16:58;11.20;89.00
8707;DHT22;4390;49.302;9.306;2023-04-15T09:19:25;11.20;89.00
8707;DHT22;4390;49.302;9.306;2023-04-15T09:21:53;11.30;89.60
8707;DHT22;4390;49.302;9.306;2023-04-15T09:24:27;11.40;89.30
8707;DHT22;4390;49.302;9.306;2023-04-15T09:26:59;11.40;89.60
8707;DHT22;4390;49.302;9.306;2023-04-15T09:29:27;11.60;88.80
8707;DHT22;4390;49.302;9.306;2023-04-15T09:31:53;11.70;88.30
8707;DHT22;4390;49.302;9.306;2023-04-15T09:34:20;11.80;88.90
8707;DHT22;4390;49.302;9.306;2023-04-15T09:37:00;11.90;87.60
8707;DHT22;4390;49.302;9.306;2023-04-15T09:39:27;12.00;88.70
8707;DHT22;4390;49.302;9.306;2023-04-15T09:42:04;12.10;87.30
8707;DHT22;4390;49.302;9.306;2023-04-15T09:44:32;12.40;84.00
8707;DHT22;4390;49.302;9.306;2023-04-15T09:46:59;12.60;83.10
8707;DHT22;4390;49.302;9.306;2023-04-15T09:49:26;12.70;81.60
8707;DHT22;4390;49.302;9.306;2023-04-15T09:51:58;12.70;82.00
8707;DHT22;4390;49.302;9.306;2023-04-15T09:54:36;12.90;81.90
8707;DHT22;4390;49.302;9.306;2023-04-15T09:57:07;13.00;81.40
8707;DHT22;4390;49.302;9.306;2023-04-15T09:59:35;13.00;81.20
8707;DHT22;4390;49.302;9.306;2023-04-15T10:02:05;12.90;81.30
8707;DHT22;4390;49.302;9.306;2023-04-15T10:04:39;12.90;81.30
8707;DHT22;4390;49.302;9.306;2023-04-15T10:07:11;13.00;81.40
8707;DHT22;4390;49.302;9.306;2023-04-15T10:09:38;12.90;81.70
8707;DHT22;4390;49.302;9.306;2023-04-15T10:12:05;13.00;81.80
8707;DHT22;4390;49.302;9.306;2023-04-15T10:14:34;12.90;81.60
8707;DHT22;4390;49.302;9.306;2023-04-15T10:17:03;12.90;82.30
8707;DHT22;4390;49.302;9.306;2023-04-15T10:19:31;13.10;81.50
8707;DHT22;4390;49.302;9.306;2023-04-15T10:21:59;13.10;81.00
8707;DHT22;4390;49.302;9.306;2023-04-15T10:24:26;13.00;81.10
8707;DHT22;4390;49.302;9.306;2023-04-15T10:26:54;12.80;80.40
8707;DHT22;4390;49.302;9.306;2023-04-15T10:29:21;12.60;81.60
8707;DHT22;4390;49.302;9.306;2023-04-15T10:31:48;12.40;82.10
8707;DHT22;4390;49.302;9.306;2023-04-15T10:34:17;12.30;82.00
8707;DHT22;4390;49.302;9.306;2023-04-15T10:36:43;12.40;81.40
8707;DHT22;4390;49.302;9.306;2023-04-15T10:39:41;12.20;81.00
8707;DHT22;4390;49.302;9.306;2023-04-15T10:42:13;12.00;81.30
8707;DHT22;4390;49.302;9.306;2023-04-15T10:44:55;11.80;81.60
8707;DHT22;4390;49.302;9.306;2023-04-15T10:47:22;11.80;82.20
8707;DHT22;4390;49.302;9.306;2023-04-15T10:49:51;11.90;81.80
8707;DHT22;4390;49.302;9.306;2023-04-15T10:52:24;12.10;81.60
8707;DHT22;4390;49.302;9.306;2023-04-15T10:55:23;12.30;80.60
8707;DHT22;4390;49.302;9.306;2023-04-15T10:57:52;12.30;81.00
8707;DHT22;4390;49.302;9.306;2023-04-15T11:00:24;12.20;81.10
8707;DHT22;4390;49.302;9.306;2023-04-15T11:03:13;12.00;81.10
8707;DHT22;4390;49.302;9.306;2023-04-15T11:08:11;12.40;79.90
8707;DHT22;4390;49.302;9.306;2023-04-15T11:15:37;12.70;77.00
8707;DHT22;4390;49.302;9.306;2023-04-15T11:20:40;12.80;75.60
8707;DHT22;4390;49.302;9.306;2023-04-15T11:23:08;13.00;76.30
8707;DHT22;4390;49.302;9.306;2023-04-15T11:25:41;12.90;75.00
8707;DHT22;4390;49.302;9.306;2023-04-15T11:28:09;12.50;75.00
8707;DHT22;4390;49.302;9.306;2023-04-15T11:30:37;12.40;75.20
8707;DHT22;4390;49.302;9.306;2023-04-15T11:33:05;12.20;74.50
8707;DHT22;4390;49.302;9.306;2023-04-15T11:35:34;12.40;75.80
8707;DHT22;4390;49.302;9.306;2023-04-15T11:38:07;12.90;74.70
8707;DHT22;4390;49.302;9.306;2023-04-15T11:40:34;13.20;73.80
8707;DHT22;4390;49.302;9.306;2023-04-15T11:43:06;13.30;73.50
8707;DHT22;4390;49.302;9.306;2023-04-15T11:45:34;12.90;72.60
8707;DHT22;4390;49.302;9.306;2023-04-15T11:48:09;12.70;73.60
8707;DHT22;4390;49.302;9.306;2023-04-15T11:50:37;12.70;72.60
8707;DHT22;4390;49.302;9.306;2023-04-15T11:53:10;12.50;72.30
8707;DHT22;4390;49.302;9.306;2023-04-15T11:55:50;12.40;71.20
8707;DHT22;4390;49.302;9.306;2023-04-15T11:58:22;12.40;72.10
8707;DHT22;4390;49.302;9.306;2023-04-15T12:00:52;12.60;71.90
8707;DHT22;4390;49.302;9.306;2023-04-15T12:03:23;12.60;70.90
8707;DHT22;4390;49.302;9.306;2023-04-15T12:08:48;12.40;71.60
8707;DHT22;4390;49.302;9.306;2023-04-15T12:11:16;12.70;70.80
8707;DHT22;4390;49.302;9.306;2023-04-15T12:16:51;12.20;72.70
8707;DHT22;4390;49.302;9.306;2023-04-15T12:19:25;12.10;73.30
8707;DHT22;4390;49.302;9.306;2023-04-15T12:21:57;12.10;74.00
8707;DHT22;4390;49.302;9.306;2023-04-15T12:24:26;12.10;74.70
8707;DHT22;4390;49.302;9.306;2023-04-15T12:26:54;12.10;75.50
8707;DHT22;4390;49.302;9.306;2023-04-15T12:29:28;12.10;75.20
8707;DHT22;4390;49.302;9.306;2023-04-15T12:31:55;12.00;75.80
8707;DHT22;4390;49.302;9.306;2023-04-15T12:34:34;12.00;75.90
8707;DHT22;4390;49.302;9.306;2023-04-15T12:37:03;12.00;75.60
8707;DHT22;4390;49.302;9.306;2023-04-15T12:39:34;11.90;76.50
8707;DHT22;4390;49.302;9.306;2023-04-15T12:42:01;11.60;76.60
8707;DHT22;4390;49.302;9.306;2023-04-15T12:44:28;11.50;77.80
8707;DHT22;4390;49.302;9.306;2023-04-15T12:46:55;11.40;78.10
8707;DHT22;4390;49.302;9.306;2023-04-15T12:49:23;11.40;78.80
8707;DHT22;4390;49.302;9.306;2023-04-15T12:51:53;11.30;78.40
8707;DHT22;4390;49.302;9.306;2023-04-15T12:54:20;11.20;79.90
8707;DHT22;4390;49.302;9.306;2023-04-15T12:56:49;11.20;79.60
8707;DHT22;4390;49.302;9.306;2023-04-15T12:59:16;11.20;78.30
8707;DHT22;4390;49.302;9.306;2023-04-15T13:01:45;11.20;78.50
8707;DHT22;4390;49.302;9.306;2023-04-15T13:04:12;11.20;78.80
8707;DHT22;4390;49.302;9.306;2023-04-15T13:06:39;11.40;78.20
8707;DHT22;4390;49.302;9.306;2023-04-15T13:09:06;11.60;78.10
8707;DHT22;4390;49.302;9.306;2023-04-15T13:11:32;11.40;77.70
8707;DHT22;4390;49.302;9.306;2023-04-15T13:14:01;11.10;79.40
8707;DHT22;4390;49.302;9.306;2023-04-15T13:16:29;11.00;79.60
8707;DHT22;4390;49.302;9.306;2023-04-15T13:18:56;10.70;79.80
8707;DHT22;4390;49.302;9.306;2023-04-15T13:21:23;10.70;80.70
8707;DHT22;4390;49.302;9.306;2023-04-15T13:23:50;10.90;80.40
8707;DHT22;4390;49.302;9.306;2023-04-15T13:26:17;10.90;80.80
8707;DHT22;4390;49.302;9.306;2023-04-15T13:28:45;11.00;80.80
8707;DHT22;4390;49.302;9.306;2023-04-15T13:31:11;11.20;81.70
8707;DHT22;4390;49.302;9.306;2023-04-15T13:33:38;11.00;83.00
8707;DHT22;4390;49.302;9.306;2023-04-15T13:36:05;10.90;84.00
8707;DHT22;4390;49.302;9.306;2023-04-15T13:38:32;10.90;85.20
8707;DHT22;4390;49.302;9.306;2023-04-15T13:40:58;10.90;86.70
8707;DHT22;4390;49.302;9.306;2023-04-15T13:43:25;11.10;87.00
8707;DHT22;4390;49.302;9.306;2023-04-15T13:45:52;11.20;87.40
8707;DHT22;4390;49.302;9.306;2023-04-15T13:48:19;11.00;88.70
8707;DHT22;4390;49.302;9.306;2023-04-15T13:50:46;10.90;89.90
8707;DHT22;4390;49.302;9.306;2023-04-15T13:53:12;11.00;90.30
8707;DHT22;4390;49.302;9.306;2023-04-15T13:55:39;10.70;90.60
8707;DHT22;4390;49.302;9.306;2023-04-15T13:58:08;10.50;91.10
8707;DHT22;4390;49.302;9.306;2023-04-15T14:00:35;10.50;90.70
8707;DHT22;4390;49.302;9.306;2023-04-15T14:03:02;10.20;90.30
8707;DHT22;4390;49.302;9.306;2023-04-15T14:05:29;10.20;90.90
8707;DHT22;4390;49.302;9.306;2023-04-15T14:07:55;10.20;90.60
8707;DHT22;4390;49.302;9.306;2023-04-15T14:10:22;10.10;91.20
8707;DHT22;4390;49.302;9.306;2023-04-15T14:12:49;10.10;90.90
8707;DHT22;4390;49.302;9.306;2023-04-15T14:15:16;10.10;90.50
8707;DHT22;4390;49.302;9.306;2023-04-15T14:17:43;9.90;91.00
8707;DHT22;4390;49.302;9.306;2023-04-15T14:20:09;9.80;91.00
8707;DHT22;4390;49.302;9.306;2023-04-15T14:22:36;9.80;90.80
8707;DHT22;4390;49.302;9.306;2023-04-15T14:25:03;9.70;91.30
8707;DHT22;4390;49.302;9.306;2023-04-15T14:27:31;9.70;91.20
8707;DHT22;4390;49.302;9.306;2023-04-15T14:29:58;9.90;90.30
8707;DHT22;4390;49.302;9.306;2023-04-15T14:32:25;10.00;90.40
8707;DHT22;4390;49.302;9.306;2023-04-15T14:34:52;10.00;90.00
8707;DHT22;4390;49.302;9.306;2023-04-15T14:37:19;9.90;90.00
8707;DHT22;4390;49.302;9.306;2023-04-15T14:39:46;9.90;90.50
8707;DHT22;4390;49.302;9.306;2023-04-15T14:42:12;10.00;90.40
8707;DHT22;4390;49.302;9.306;2023-04-15T14:44:39;10.10;90.60
8707;DHT22;4390;49.302;9.306;2023-04-15T14:47:06;10.20;90.90
8707;DHT22;4390;49.302;9.306;2023-04-15T14:49:32;10.20;90.00
8707;DHT22;4390;49.302;9.306;2023-04-15T14:51:59;10.10;91.30
8707;DHT22;4390;49.302;9.306;2023-04-15T14:54:26;10.20;92.20
8707;DHT22;4390;49.302;9.306;2023-04-15T14:56:53;10.10;92.60
8707;DHT22;4390;49.302;9.306;2023-04-15T14:59:19;10.10;92.70
8707;DHT22;4390;49.302;9.306;2023-04-15T15:01:46;9.90;90.90
8707;DHT22;4390;49.302;9.306;2023-04-15T15:04:13;10.10;91.70
8707;DHT22;4390;49.302;9.306;2023-04-15T15:06:40;10.10;92.50
8707;DHT22;4390;49.302;9.306;2023-04-15T15:09:07;10.20;91.60
8707;DHT22;4390;49.302;9.306;2023-04-15T15:11:34;10.40;92.60
8707;DHT22;4390;49.302;9.306;2023-04-15T15:14:01;10.50;91.70
8707;DHT22;4390;49.302;9.306;2023-04-15T15:16:28;10.50;91.10
8707;DHT22;4390;49.302;9.306;2023-04-15T15:18:55;10.60;90.80
8707;DHT22;4390;49.302;9.306;2023-04-15T15:21:21;10.50;91.50
8707;DHT22;4390;49.302;9.306;2023-04-15T15:23:48;10.60;91.10
8707;DHT22;4390;49.302;9.306;2023-04-15T15:26:15;10.70;91.40
8707;DHT22;4390;49.302;9.306;2023-04-15T15:28:42;10.70;90.50
8707;DHT22;4390;49.302;9.306;2023-04-15T15:31:10;10.60;91.40
8707;DHT22;4390;49.302;9.306;2023-04-15T15:33:37;10.60;91.60
8707;DHT22;4390;49.302;9.306;2023-04-15T15:36:04;10.50;90.90
8707;DHT22;4390;49.302;9.306;2023-04-15T15:38:31;10.60;91.40
8707;DHT22;4390;49.302;9.306;2023-04-15T15:40:58;10.60;91.40
8707;DHT22;4390;49.302;9.306;2023-04-15T15:43:24;10.80;91.60
8707;DHT22;4390;49.302;9.306;2023-04-15T15:45:51;10.90;92.20
8707;DHT22;4390;49.302;9.306;2023-04-15T15:48:24;10.70;92.20
8707;DHT22;4390;49.302;9.306;2023-04-15T15:50:51;10.60;91.40
8707;DHT22;4390;49.302;9.306;2023-04-15T15:53:18;10.70;92.20
8707;DHT22;4390;49.302;9.306;2023-04-15T15:55:46;10.70;92.10
8707;DHT22;4390;49.302;9.306;2023-04-15T15:58:19;10.60;91.70
8707;DHT22;4390;49.302;9.306;2023-04-15T16:00:46;10.40;92.30
8707;DHT22;4390;49.302;9.306;2023-04-15T16:03:14;10.20;92.60
8707;DHT22;4390;49.302;9.306;2023-04-15T16:05:41;10.00;93.00
8707;DHT22;4390;49.302;9.306;2023-04-15T16:08:08;10.10;92.90
8707;DHT22;4390;49.302;9.306;2023-04-15T16:10:35;10.10;93.00
8707;DHT22;4390;49.302;9.306;2023-04-15T16:13:03;10.10;92.00
8707;DHT22;4390;49.302;9.306;2023-04-15T16:15:30;10.10;92.60
8707;DHT22;4390;49.302;9.306;2023-04-15T16:17:56;10.10;92.00
8707;DHT22;4390;49.302;9.306;2023-04-15T16:20:23;9.80;92.50
8707;DHT22;4390;49.302;9.306;2023-04-15T16:22:50;9.90;93.30
8707;DHT22;4390;49.302;9.306;2023-04-15T16:25:17;9.70;92.80
8707;DHT22;4390;49.302;9.306;2023-04-15T16:27:44;9.80;93.50
8707;DHT22;4390;49.302;9.306;2023-04-15T16:30:26;9.60;93.50
8707;DHT22;4390;49.302;9.306;2023-04-15T16:32:55;9.30;94.60